createdAt,value
2019-02-23T00:02:07.492Z,104308.02
2019-02-23T00:04:36.538Z,104325.24
2019-02-23T00:07:05.479Z,104335.41
2019-02-23T00:09:34.483Z,104342.95
2019-02-23T00:12:04.680Z,104345.08
2019-02-23T00:14:33.782Z,104350.31
2019-02-23T00:17:02.875Z,104339.95
2019-02-23T00:19:31.886Z,104343.81
2019-02-23T00:22:00.906Z,104343.62
2019-02-23T00:24:29.870Z,104345.06
2019-02-23T00:26:58.933Z,104329.28
2019-02-23T00:29:27.944Z,104326.18
2019-02-23T00:31:57.010Z,104323.75
2019-02-23T00:34:26.025Z,104330.81
2019-02-23T00:36:55.010Z,104341.64
2019-02-23T00:39:24.065Z,104339.61
2019-02-23T00:41:53.097Z,104338.45
2019-02-23T00:44:22.161Z,104344.05
2019-02-23T00:46:51.187Z,104339.20
2019-02-23T00:49:20.942Z,104338.05
2019-02-23T00:51:51.846Z,104345.59
2019-02-23T00:54:20.685Z,104352.27
2019-02-23T00:56:49.753Z,104358.92
2019-02-23T00:59:18.770Z,104364.72
2019-02-23T01:01:47.786Z,104366.75
2019-02-23T01:04:16.778Z,104361.23
2019-02-23T01:06:45.868Z,104353.98
2019-02-23T01:09:14.958Z,104351.22
2019-02-23T01:11:43.997Z,104356.43
2019-02-23T01:14:13.131Z,104367.64
2019-02-23T01:16:42.196Z,104364.56
2019-02-23T01:19:11.219Z,104375.19
2019-02-23T01:21:40.241Z,104369.59
2019-02-23T01:24:09.321Z,104374.63
2019-02-23T01:26:38.398Z,104369.59
2019-02-23T01:29:07.460Z,104373.65
2019-02-23T01:31:36.489Z,104371.03
2019-02-23T01:34:05.524Z,104372.47
2019-02-23T01:36:34.602Z,104374.77
2019-02-23T01:39:04.754Z,104372.82
2019-02-23T01:41:33.750Z,104366.72
2019-02-23T01:44:02.788Z,104359.63
2019-02-23T01:46:31.855Z,104358.16
2019-02-23T01:49:00.875Z,104355.34
2019-02-23T01:51:30.566Z,104354.53
2019-02-23T01:53:59.916Z,104357.12
2019-02-23T01:56:29.001Z,104348.87
2019-02-23T01:58:58.349Z,104342.77
2019-02-23T02:01:27.298Z,104331.15
2019-02-23T02:03:56.382Z,104332.30
2019-02-23T02:06:25.378Z,104323.19
2019-02-23T02:08:54.845Z,104319.98
2019-02-23T02:11:24.258Z,104319.77
2019-02-23T02:13:53.332Z,104320.53
2019-02-23T02:16:22.492Z,104317.05
2019-02-23T02:18:51.451Z,104310.77
2019-02-23T02:21:20.519Z,104313.94
2019-02-23T02:23:49.554Z,104308.53
2019-02-23T02:26:18.919Z,104302.25
2019-02-23T02:28:48.029Z,104312.16
2019-02-23T02:31:17.132Z,104320.08
2019-02-23T02:34:07.751Z,104324.13
2019-02-23T02:36:36.857Z,104315.55
2019-02-23T02:39:09.613Z,104317.33
2019-02-23T02:41:39.005Z,104314.05
2019-02-23T02:44:08.006Z,104310.77
2019-02-23T02:46:37.084Z,104312.79
2019-02-23T02:49:06.101Z,104328.23
2019-02-23T02:51:35.293Z,104332.39
2019-02-23T02:54:04.458Z,104328.45
2019-02-23T02:56:33.573Z,104335.33
2019-02-23T02:59:02.641Z,104333.20
2019-02-23T03:01:31.683Z,104326.81
2019-02-23T03:04:00.779Z,104319.31
2019-02-23T03:06:30.125Z,104316.59
2019-02-23T03:08:59.217Z,104316.31
2019-02-23T03:11:28.270Z,104319.59
2019-02-23T03:13:57.327Z,104314.63
2019-02-23T03:16:26.369Z,104307.37
2019-02-23T03:18:55.348Z,104300.61
2019-02-23T03:21:24.383Z,104309.67
2019-02-23T03:23:53.384Z,104313.22
2019-02-23T03:26:22.812Z,104315.63
2019-02-23T03:28:51.809Z,104307.44
2019-02-23T03:31:20.880Z,104303.17
2019-02-23T03:33:49.913Z,104306.67
2019-02-23T03:36:18.938Z,104306.67
2019-02-23T03:38:48.664Z,104306.07
2019-02-23T03:41:17.688Z,104321.80
2019-02-23T03:43:46.660Z,104323.66
2019-02-23T03:46:15.698Z,104322.13
2019-02-23T03:48:44.759Z,104325.23
2019-02-23T03:51:13.788Z,104339.87
2019-02-23T03:53:42.878Z,104341.55
2019-02-23T03:56:12.153Z,104338.48
2019-02-23T03:58:41.102Z,104326.70
2019-02-23T04:01:10.167Z,104327.67
2019-02-23T04:03:39.243Z,104319.55
2019-02-23T04:06:08.276Z,104320.31
2019-02-23T04:08:37.397Z,104312.29
2019-02-23T04:11:06.458Z,104324.52
2019-02-23T04:13:35.505Z,104336.48
2019-02-23T04:16:04.569Z,104327.52
2019-02-23T04:18:33.667Z,104318.63
2019-02-23T04:21:02.726Z,104323.27
2019-02-23T04:23:31.811Z,104316.61
2019-02-23T04:26:00.844Z,104307.55
2019-02-23T04:28:30.152Z,104300.67
2019-02-23T04:30:59.210Z,104296.97
2019-02-23T04:33:28.270Z,104291.84
2019-02-23T04:35:57.295Z,104292.60
2019-02-23T04:38:26.592Z,104286.22
2019-02-23T04:40:55.724Z,104280.81
2019-02-23T04:43:25.107Z,104295.50
2019-02-23T04:45:54.146Z,104289.81
2019-02-23T04:48:23.451Z,104307.50
2019-02-23T04:50:52.526Z,104307.01
2019-02-23T04:53:21.526Z,104303.45
2019-02-23T04:55:50.578Z,104305.69
2019-02-23T04:58:19.640Z,104312.24
2019-02-23T05:00:48.924Z,104308.38
2019-02-23T05:03:18.265Z,104307.81
2019-02-23T05:05:47.334Z,104312.95
2019-02-23T05:08:16.354Z,104310.44
2019-02-23T05:10:45.439Z,104302.62
2019-02-23T05:13:14.393Z,104307.37
2019-02-23T05:15:43.777Z,104296.45
2019-02-23T05:18:12.792Z,104300.98
2019-02-23T05:20:41.870Z,104295.97
2019-02-23T05:23:10.880Z,104292.58
2019-02-23T05:25:39.938Z,104291.60
2019-02-23T05:28:09.000Z,104284.84
2019-02-23T05:30:38.016Z,104278.56
2019-02-23T05:33:07.154Z,104287.03
2019-02-23T05:35:36.219Z,104280.37
2019-02-23T05:38:05.283Z,104277.86
2019-02-23T05:40:34.239Z,104275.62
2019-02-23T05:43:03.389Z,104271.09
2019-02-23T05:45:32.520Z,104265.86
2019-02-23T05:48:01.544Z,104264.88
2019-02-23T05:50:30.624Z,104271.64
2019-02-23T05:52:59.605Z,104264.81
2019-02-23T05:55:28.980Z,104260.56
2019-02-23T05:57:58.338Z,104255.92
2019-02-23T06:00:27.437Z,104252.43
2019-02-23T06:02:56.518Z,104261.60
2019-02-23T06:05:25.552Z,104260.84
2019-02-23T06:07:54.529Z,104261.88
2019-02-23T06:10:23.566Z,104269.90
2019-02-23T06:12:52.645Z,104280.64
2019-02-23T06:15:21.589Z,104273.59
2019-02-23T06:17:50.642Z,104271.58
2019-02-23T06:20:19.759Z,104274.37
2019-02-23T06:22:48.817Z,104277.27
2019-02-23T06:25:18.056Z,104272.03
2019-02-23T06:27:47.179Z,104274.16
2019-02-23T06:30:18.446Z,104280.92
2019-02-23T06:32:47.076Z,104291.63
2019-02-23T06:35:16.150Z,104288.45
2019-02-23T06:37:45.182Z,104301.44
2019-02-23T06:40:14.209Z,104305.03
2019-02-23T06:42:43.346Z,104308.52
2019-02-23T06:45:12.460Z,104310.31
2019-02-23T06:47:41.813Z,104306.75
2019-02-23T06:50:10.843Z,104301.59
2019-02-23T06:52:39.962Z,104296.67
2019-02-23T06:55:09.015Z,104302.67
2019-02-23T06:57:38.048Z,104296.81
2019-02-23T07:00:09.419Z,104296.08
2019-02-23T07:02:38.467Z,104298.13
2019-02-23T07:05:07.567Z,104305.91
2019-02-23T07:07:36.906Z,104303.14
2019-02-23T07:10:07.533Z,104296.70
2019-02-23T07:12:36.559Z,104295.19
2019-02-23T07:15:05.838Z,104292.20
2019-02-23T07:17:34.853Z,104292.84
2019-02-23T07:20:03.900Z,104298.11
2019-02-23T07:22:33.849Z,104300.73
2019-02-23T07:25:02.878Z,104283.63
2019-02-23T07:27:31.961Z,104273.75
2019-02-23T07:30:01.068Z,104275.69
2019-02-23T07:32:30.154Z,104282.56
2019-02-23T07:34:59.178Z,104282.39
2019-02-23T07:37:28.170Z,104274.98
2019-02-23T07:39:57.219Z,104273.28
2019-02-23T07:42:26.543Z,104282.95
2019-02-23T07:44:55.517Z,104295.16
2019-02-23T07:47:24.542Z,104293.86
2019-02-23T07:49:53.596Z,104288.47
2019-02-23T07:52:26.247Z,104299.75
2019-02-23T07:54:53.652Z,104306.29
2019-02-23T07:57:24.076Z,104307.69
2019-02-23T07:59:53.101Z,104305.73
2019-02-23T08:02:22.169Z,104316.56
2019-02-23T08:04:51.223Z,104323.70
2019-02-23T08:07:20.246Z,104320.22
2019-02-23T08:09:49.261Z,104312.91
2019-02-23T08:12:18.342Z,104306.54
2019-02-23T08:14:47.428Z,104316.41
2019-02-23T08:17:16.514Z,104327.78
2019-02-23T08:19:45.569Z,104325.34
2019-02-23T08:22:14.638Z,104314.57
2019-02-23T08:24:43.647Z,104318.14
2019-02-23T08:27:12.701Z,104322.73
2019-02-23T08:29:41.636Z,104330.06
2019-02-23T08:32:10.702Z,104335.25
2019-02-23T08:34:39.714Z,104325.04
2019-02-23T08:37:08.730Z,104309.48
2019-02-23T08:39:37.858Z,104292.53
2019-02-23T08:42:06.906Z,104293.09
2019-02-23T08:44:35.953Z,104284.95
2019-02-23T08:47:05.006Z,104278.69
2019-02-23T08:49:34.482Z,104285.95
2019-02-23T08:52:03.750Z,104297.80
2019-02-23T08:54:32.748Z,104300.03
2019-02-23T08:57:01.777Z,104301.53
2019-02-23T08:59:30.828Z,104295.62
2019-02-23T09:01:59.847Z,104296.89
2019-02-23T09:04:28.916Z,104283.63
2019-02-23T09:06:57.982Z,104285.84
2019-02-23T09:09:27.053Z,104292.47
2019-02-23T09:11:56.425Z,104301.33
2019-02-23T09:14:25.455Z,104315.55
2019-02-23T09:16:54.390Z,104319.58
2019-02-23T09:19:23.441Z,104315.39
2019-02-23T09:21:52.617Z,104307.25
2019-02-23T09:24:21.572Z,104292.95
2019-02-23T09:26:50.643Z,104290.41
2019-02-23T09:29:19.620Z,104276.81
2019-02-23T09:31:48.683Z,104277.21
2019-02-23T09:34:17.986Z,104269.49
2019-02-23T09:36:47.112Z,104271.61
2019-02-23T09:39:16.052Z,104270.84
2019-02-23T09:41:45.065Z,104267.96
2019-02-23T09:44:14.136Z,104271.80
2019-02-23T09:46:43.154Z,104273.11
2019-02-23T09:49:12.162Z,104275.91
2019-02-23T09:51:41.219Z,104278.21
2019-02-23T09:54:10.243Z,104280.09
2019-02-23T09:56:39.249Z,104289.84
2019-02-23T09:59:08.300Z,104278.27
2019-02-23T10:01:37.369Z,104278.45
2019-02-23T10:04:06.376Z,104280.27
2019-02-23T10:06:35.425Z,104261.15
2019-02-23T10:09:05.581Z,104257.46
2019-02-23T10:11:34.877Z,104254.84
2019-02-23T10:14:03.922Z,104264.34
2019-02-23T10:16:32.883Z,104269.95
2019-02-23T10:19:01.937Z,104281.26
2019-02-23T10:21:30.952Z,104279.69
2019-02-23T10:23:59.938Z,104283.52
2019-02-23T10:26:28.943Z,104263.71
2019-02-23T10:28:57.955Z,104272.05
2019-02-23T10:31:26.950Z,104287.87
2019-02-23T10:33:55.965Z,104290.15
2019-02-23T10:36:25.011Z,104298.46
2019-02-23T10:38:54.052Z,104291.97
2019-02-23T10:41:23.136Z,104289.83
2019-02-23T10:43:52.115Z,104291.19
2019-02-23T10:46:21.136Z,104298.02
2019-02-23T10:48:50.135Z,104290.83
2019-02-23T10:51:19.489Z,104274.26
2019-02-23T10:53:48.443Z,104279.56
2019-02-23T10:56:17.791Z,104281.25
2019-02-23T10:58:46.861Z,104288.47
2019-02-23T11:01:15.923Z,104278.28
2019-02-23T11:03:44.935Z,104267.63
2019-02-23T11:06:14.204Z,104261.59
2019-02-23T11:08:43.261Z,104269.16
2019-02-23T11:11:12.320Z,104273.44
2019-02-23T11:13:41.373Z,104270.65
2019-02-23T11:16:10.604Z,104275.50
2019-02-23T11:18:39.897Z,104276.05
2019-02-23T11:21:08.976Z,104270.95
2019-02-23T11:23:44.258Z,104263.98
2019-02-23T11:26:08.845Z,104269.53
2019-02-23T11:28:37.892Z,104256.30
2019-02-23T11:31:06.966Z,104265.56
2019-02-23T11:33:36.023Z,104253.75
2019-02-23T11:36:05.038Z,104244.17
2019-02-23T11:38:34.110Z,104234.23
2019-02-23T11:41:03.094Z,104236.31
2019-02-23T11:43:32.151Z,104236.87
2019-02-23T11:46:01.184Z,104247.89
2019-02-23T11:48:30.194Z,104238.23
2019-02-23T11:50:59.172Z,104235.38
2019-02-23T11:53:28.589Z,104226.73
2019-02-23T11:55:57.643Z,104235.66
2019-02-23T11:58:26.654Z,104240.29
2019-02-23T12:00:55.724Z,104228.55
2019-02-23T12:03:24.670Z,104220.27
2019-02-23T12:05:53.724Z,104223.63
2019-02-23T12:08:22.791Z,104218.12
2019-02-23T12:10:52.178Z,104208.48
2019-02-23T12:13:21.196Z,104209.35
2019-02-23T12:15:50.217Z,104213.55
2019-02-23T12:18:19.726Z,104199.16
2019-02-23T12:20:48.776Z,104206.40
2019-02-23T12:23:17.805Z,104204.22
2019-02-23T12:25:46.933Z,104192.61
2019-02-23T12:28:15.937Z,104198.53
2019-02-23T12:30:45.025Z,104204.00
2019-02-23T12:33:14.075Z,104199.13
2019-02-23T12:35:43.433Z,104186.33
2019-02-23T12:38:12.536Z,104181.42
2019-02-23T12:40:41.941Z,104179.05
2019-02-23T12:43:11.007Z,104179.14
2019-02-23T12:45:40.353Z,104191.66
2019-02-23T12:48:09.312Z,104190.56
2019-02-23T12:50:38.362Z,104193.80
2019-02-23T12:53:07.462Z,104189.25
2019-02-23T12:55:37.564Z,104175.14
2019-02-23T12:58:06.567Z,104185.33
2019-02-23T13:00:35.628Z,104174.58
2019-02-23T13:03:04.688Z,104174.77
2019-02-23T13:05:33.703Z,104194.06
2019-02-23T13:08:02.732Z,104190.25
2019-02-23T13:10:31.801Z,104191.64
2019-02-23T13:13:34.613Z,104194.91
2019-02-23T13:16:25.417Z,104195.52
2019-02-23T13:19:53.770Z,104186.47
2019-02-23T13:22:31.703Z,104200.88
2019-02-23T13:25:22.784Z,104182.30
2019-02-23T13:28:35.006Z,104187.19
2019-02-23T13:31:33.959Z,104176.42
2019-02-23T13:34:33.387Z,104175.10
2019-02-23T13:37:17.977Z,104175.03
2019-02-23T13:40:06.389Z,104162.37
2019-02-23T13:43:10.034Z,104157.95
2019-02-23T13:45:57.526Z,104147.63
2019-02-23T13:48:56.477Z,104150.95
2019-02-23T13:52:15.472Z,104162.28
2019-02-23T13:55:27.130Z,104164.70
2019-02-23T13:58:10.835Z,104159.52
2019-02-23T14:01:21.196Z,104141.61
2019-02-23T14:04:40.357Z,104152.69
2019-02-23T14:08:00.267Z,104152.39
2019-02-23T14:10:49.089Z,104154.00
2019-02-23T14:13:42.403Z,104139.55
2019-02-23T14:16:42.807Z,104132.67
2019-02-23T14:19:33.398Z,104132.94
2019-02-23T14:22:34.878Z,104129.86
2019-02-23T14:25:45.753Z,104137.97
2019-02-23T14:28:57.744Z,104147.09
2019-02-23T14:31:34.428Z,104142.97
2019-02-23T14:35:02.637Z,104143.59
2019-02-23T14:38:07.608Z,104139.14
2019-02-23T14:41:01.129Z,104137.97
2019-02-23T14:43:56.156Z,104129.83
2019-02-23T14:47:12.666Z,104132.83
2019-02-23T14:50:25.983Z,104127.16
2019-02-23T14:53:19.034Z,104122.88
2019-02-23T14:56:23.786Z,104118.03
2019-02-23T14:59:25.251Z,104119.52
2019-02-23T15:02:14.687Z,104128.37
2019-02-23T15:05:16.933Z,104123.94
2019-02-23T15:08:21.442Z,104119.20
2019-02-23T15:11:46.698Z,104120.12
2019-02-23T15:14:39.642Z,104122.89
2019-02-23T15:17:49.727Z,104119.90
2019-02-23T15:20:43.644Z,104118.05
2019-02-23T15:23:45.349Z,104113.09
2019-02-23T15:26:50.880Z,104096.39
2019-02-23T15:29:46.693Z,104096.66
2019-02-23T15:33:00.464Z,104095.11
2019-02-23T15:36:03.790Z,104088.88
2019-02-23T15:39:18.697Z,104085.03
2019-02-23T15:42:23.581Z,104083.52
2019-02-23T15:45:28.479Z,104075.20
2019-02-23T15:48:44.644Z,104072.10
2019-02-23T15:51:13.640Z,104064.17
2019-02-23T15:53:42.726Z,104056.66
2019-02-23T15:56:11.718Z,104047.60
2019-02-23T15:58:40.687Z,104049.99
2019-02-23T16:01:09.696Z,104040.37
2019-02-23T16:03:38.751Z,104045.27
2019-02-23T16:06:07.797Z,104041.66
2019-02-23T16:08:36.871Z,104030.73
2019-02-23T16:11:05.884Z,104034.23
2019-02-23T16:13:34.946Z,104039.02
2019-02-23T16:16:03.980Z,104041.66
2019-02-23T16:18:33.089Z,104039.59
2019-02-23T16:21:02.105Z,104045.73
2019-02-23T16:23:35.367Z,104044.08
2019-02-23T16:26:02.201Z,104040.80
2019-02-23T16:28:31.210Z,104037.57
2019-02-23T16:31:00.286Z,104036.77
2019-02-23T16:33:30.893Z,104036.74
2019-02-23T16:35:59.964Z,104041.13
2019-02-23T16:38:28.979Z,104041.17
2019-02-23T16:40:58.080Z,104031.88
2019-02-23T16:43:27.097Z,104037.22
2019-02-23T16:45:56.153Z,104035.59
2019-02-23T16:48:25.402Z,104033.55
2019-02-23T16:50:54.409Z,104026.45
2019-02-23T16:53:23.465Z,104031.05
2019-02-23T16:55:52.592Z,104039.82
2019-02-23T16:58:21.613Z,104030.16
2019-02-23T17:00:50.625Z,104026.84
2019-02-23T17:03:19.693Z,104021.80
2019-02-23T17:05:48.757Z,104021.00
2019-02-23T17:08:17.806Z,104014.67
2019-02-23T17:10:46.736Z,104010.45
2019-02-23T17:13:15.795Z,104011.22
2019-02-23T17:15:44.870Z,104011.22
2019-02-23T17:18:13.824Z,104010.01
2019-02-23T17:20:42.875Z,104002.80
2019-02-23T17:23:11.922Z,104000.52
2019-02-23T17:25:40.960Z,104004.70
2019-02-23T17:28:10.009Z,104013.20
2019-02-23T17:30:39.096Z,104009.02
2019-02-23T17:33:08.113Z,104018.84
2019-02-23T17:35:37.100Z,104021.48
2019-02-23T17:38:16.782Z,104010.08
2019-02-23T17:40:36.774Z,104010.11
2019-02-23T17:43:05.760Z,104016.86
2019-02-23T17:45:34.771Z,104015.14
2019-02-23T17:48:03.836Z,104008.70
2019-02-23T17:50:32.781Z,104000.75
2019-02-23T17:53:01.878Z,104002.32
2019-02-23T17:55:30.933Z,104007.14
2019-02-23T17:57:59.986Z,104001.16
2019-02-23T18:00:28.990Z,103995.25
2019-02-23T18:02:57.980Z,103994.16
2019-02-23T18:05:28.443Z,103995.98
2019-02-23T18:07:57.689Z,104001.90
2019-02-23T18:10:26.748Z,103998.12
2019-02-23T18:12:55.872Z,103997.41
2019-02-23T18:15:24.924Z,104005.69
2019-02-23T18:17:53.993Z,104006.47
2019-02-23T18:20:23.035Z,104005.53
2019-02-23T18:22:52.043Z,104001.66
2019-02-23T18:25:21.107Z,104000.71
2019-02-23T18:27:50.223Z,104003.44
2019-02-23T18:30:19.477Z,103999.89
2019-02-23T18:32:48.540Z,103994.77
2019-02-23T18:35:17.561Z,103997.28
2019-02-23T18:37:46.612Z,103997.91
2019-02-23T18:40:15.963Z,103996.17
2019-02-23T18:42:45.430Z,103997.59
2019-02-23T18:45:14.490Z,103990.48
2019-02-23T18:47:43.492Z,103991.11
2019-02-23T18:50:12.575Z,103988.73
2019-02-23T18:52:41.584Z,103990.62
2019-02-23T18:55:10.615Z,103992.89
2019-02-23T18:57:39.693Z,103991.86
2019-02-23T19:00:10.074Z,103986.34
2019-02-23T19:02:39.080Z,103989.96
2019-02-23T19:05:09.997Z,103990.11
2019-02-23T19:07:39.034Z,103981.12
2019-02-23T19:10:09.806Z,103985.04
2019-02-23T19:12:39.193Z,103978.09
2019-02-23T19:15:09.508Z,103984.09
2019-02-23T19:17:38.522Z,103986.30
2019-02-23T19:20:10.090Z,103984.88
2019-02-23T19:22:39.134Z,103980.05
2019-02-23T19:25:09.309Z,103969.89
2019-02-23T19:27:38.378Z,103976.20
2019-02-23T19:30:09.053Z,103969.66
2019-02-23T19:32:38.210Z,103967.14
2019-02-23T19:35:07.259Z,103968.41
2019-02-23T19:37:36.337Z,103969.97
2019-02-23T19:40:05.417Z,103965.05
2019-02-23T19:42:34.488Z,103956.36
2019-02-23T19:45:03.560Z,103968.74
2019-02-23T19:47:34.726Z,103970.20
2019-02-23T19:50:16.041Z,103969.89
2019-02-23T19:52:45.381Z,103977.06
2019-02-23T19:55:16.139Z,103976.67
2019-02-23T19:57:45.111Z,103976.52
2019-02-23T20:00:14.131Z,103974.17
2019-02-23T20:02:43.215Z,103975.52
2019-02-23T20:05:12.287Z,103973.08
2019-02-23T20:07:41.638Z,103975.14
2019-02-23T20:10:10.733Z,103970.73
2019-02-23T20:12:39.680Z,103966.25
2019-02-23T20:15:08.724Z,103963.50
2019-02-23T20:17:38.118Z,103968.23
2019-02-23T20:20:07.250Z,103966.66
2019-02-23T20:22:36.336Z,103964.30
2019-02-23T20:25:05.667Z,103969.42
2019-02-23T20:27:34.702Z,103967.38
2019-02-23T20:30:03.784Z,103956.42
2019-02-23T20:32:33.518Z,103956.90
2019-02-23T20:35:02.564Z,103952.72
2019-02-23T20:37:31.792Z,103962.10
2019-02-23T20:40:00.803Z,103964.94
2019-02-23T20:42:30.214Z,103957.84
2019-02-23T20:44:59.253Z,103960.37
2019-02-23T20:47:28.243Z,103965.89
2019-02-23T20:49:57.355Z,103952.80
2019-02-23T20:52:26.407Z,103962.02
2019-02-23T20:54:55.419Z,103953.59
2019-02-23T20:57:24.449Z,103954.93
2019-02-23T20:59:53.505Z,103949.49
2019-02-23T21:02:22.604Z,103949.09
2019-02-23T21:04:51.551Z,103942.55
2019-02-23T21:07:20.621Z,103950.43
2019-02-23T21:09:49.669Z,103944.52
2019-02-23T21:12:18.634Z,103949.95
2019-02-23T21:14:47.749Z,103951.22
2019-02-23T21:17:16.802Z,103956.26
2019-02-23T21:19:45.744Z,103951.53
2019-02-23T21:22:15.309Z,103953.19
2019-02-23T21:24:44.350Z,103961.14
2019-02-23T21:27:13.391Z,103961.92
2019-02-23T21:29:42.420Z,103965.72
2019-02-23T21:32:11.448Z,103964.68
2019-02-23T21:34:40.496Z,103965.78
2019-02-23T21:37:09.525Z,103961.44
2019-02-23T21:39:40.442Z,103963.02
2019-02-23T21:42:09.597Z,103962.53
2019-02-23T21:44:38.981Z,103961.11
2019-02-23T21:47:08.110Z,103960.16
2019-02-23T21:49:37.193Z,103963.30
2019-02-23T21:52:06.255Z,103955.09
2019-02-23T21:54:35.317Z,103954.55
2019-02-23T21:57:04.357Z,103957.20
2019-02-23T21:59:33.387Z,103952.19
2019-02-23T22:02:02.435Z,103958.94
2019-02-23T22:04:31.458Z,103952.30
2019-02-23T22:07:00.489Z,103951.02
2019-02-23T22:09:29.532Z,103948.85
2019-02-23T22:11:58.523Z,103952.67
2019-02-23T22:14:27.569Z,103947.47
2019-02-23T22:16:56.661Z,103939.83
2019-02-23T22:19:25.671Z,103943.04
2019-02-23T22:21:54.701Z,103947.21
2019-02-23T22:24:23.753Z,103947.03
2019-02-23T22:26:52.856Z,103944.52
2019-02-23T22:29:21.804Z,103941.44
2019-02-23T22:31:50.906Z,103938.44
2019-02-23T22:34:19.893Z,103938.66
2019-02-23T22:36:48.934Z,103936.48
2019-02-23T22:39:17.993Z,103934.38
2019-02-23T22:41:49.568Z,103934.50
2019-02-23T22:44:17.854Z,103941.96
2019-02-23T22:46:46.847Z,103941.79
2019-02-23T22:49:15.894Z,103940.17
2019-02-23T22:51:44.972Z,103939.34
2019-02-23T22:54:13.998Z,103935.13
2019-02-23T22:56:42.943Z,103935.63
2019-02-23T22:59:12.017Z,103931.98
2019-02-23T23:01:41.162Z,103926.20
2019-02-23T23:04:10.246Z,103933.38
2019-02-23T23:06:39.258Z,103925.77
2019-02-23T23:09:12.448Z,103915.83
2019-02-23T23:11:41.450Z,103913.52
2019-02-23T23:14:10.835Z,103914.09
2019-02-23T23:16:39.840Z,103911.58
2019-02-23T23:19:08.896Z,103910.23
2019-02-23T23:21:37.894Z,103906.06
2019-02-23T23:24:06.944Z,103907.80
2019-02-23T23:26:35.990Z,103904.03
2019-02-23T23:29:05.091Z,103902.77
2019-02-23T23:31:34.157Z,103901.52
2019-02-23T23:34:03.214Z,103902.00
2019-02-23T23:36:32.192Z,103899.75
2019-02-23T23:39:01.247Z,103898.28
2019-02-23T23:41:30.307Z,103901.16
2019-02-23T23:43:59.632Z,103898.83
2019-02-23T23:46:28.697Z,103906.07
2019-02-23T23:48:57.709Z,103907.81
2019-02-23T23:51:26.743Z,103902.48
2019-02-23T23:53:55.836Z,103904.99
2019-02-23T23:56:24.774Z,103910.50
2019-02-23T23:58:53.793Z,103907.98
